sensor_id;sensor_type;location;lat;lon;timestamp;pressure;altitude;pressure_sealevel;temperature;humidity
51603;BME280;37954;51.980;5.850;2023-06-22T00:00:56;101601.00;;;21.14;62.31
51603;BME280;37954;51.980;5.850;2023-06-22T00:05:08;101593.34;;;21.06;62.56
51603;BME280;37954;51.980;5.850;2023-06-22T00:09:20;101601.56;;;21.06;62.46
51603;BME280;37954;51.980;5.850;2023-06-22T00:13:32;101589.00;;;21.05;62.36
51603;BME280;37954;51.980;5.850;2023-06-22T00:17:43;101595.00;;;21.02;62.31
51603;BME280;37954;51.980;5.850;2023-06-22T00:21:55;101589.25;;;20.94;62.65
51603;BME280;37954;51.980;5.850;2023-06-22T00:26:14;101580.47;;;20.81;62.38
51603;BME280;37954;51.980;5.850;2023-06-22T00:30:25;101578.03;;;20.75;62.93
51603;BME280;37954;51.980;5.850;2023-06-22T00:34:41;101597.97;;;20.85;63.63
51603;BME280;37954;51.980;5.850;2023-06-22T00:38:53;101578.03;;;20.75;63.44
51603;BME280;37954;51.980;5.850;2023-06-22T00:43:05;101556.97;;;20.60;64.18
51603;BME280;37954;51.980;5.850;2023-06-22T00:47:17;101589.47;;;20.67;64.36
51603;BME280;37954;51.980;5.850;2023-06-22T00:51:29;101567.03;;;20.49;64.59
51603;BME280;37954;51.980;5.850;2023-06-22T00:55:42;101592.16;;;20.46;64.88
51603;BME280;37954;51.980;5.850;2023-06-22T00:59:55;101590.78;;;20.39;64.90
51603;BME280;37954;51.980;5.850;2023-06-22T01:04:07;101603.34;;;20.40;65.24
51603;BME280;37954;51.980;5.850;2023-06-22T01:08:34;101597.25;;;20.33;65.24
51603;BME280;37954;51.980;5.850;2023-06-22T01:12:52;101597.50;;;20.26;65.87
51603;BME280;37954;51.980;5.850;2023-06-22T01:17:06;101569.88;;;20.07;65.89
51603;BME280;37954;51.980;5.850;2023-06-22T01:21:20;101586.00;;;20.14;66.26
51603;BME280;37954;51.980;5.850;2023-06-22T01:26:06;101576.44;;;20.06;66.27
51603;BME280;37954;51.980;5.850;2023-06-22T01:30:20;101578.59;;;20.04;66.53
51603;BME280;37954;51.980;5.850;2023-06-22T01:34:33;101576.66;;;20.00;66.77
51603;BME280;37954;51.980;5.850;2023-06-22T01:38:48;101564.88;;;19.94;66.60
51603;BME280;37954;51.980;5.850;2023-06-22T01:43:03;101575.56;;;20.01;66.91
51603;BME280;37954;51.980;5.850;2023-06-22T01:47:15;101563.81;;;19.90;67.09
51603;BME280;37954;51.980;5.850;2023-06-22T01:51:27;101562.44;;;19.93;67.21
51603;BME280;37954;51.980;5.850;2023-06-22T01:55:39;101572.00;;;19.95;67.17
51603;BME280;37954;51.980;5.850;2023-06-22T02:00:04;101557.53;;;19.90;67.08
51603;BME280;37954;51.980;5.850;2023-06-22T02:04:29;101556.16;;;19.87;67.15
51603;BME280;37954;51.980;5.850;2023-06-22T02:08:56;101570.91;;;19.96;66.76
51603;BME280;37954;51.980;5.850;2023-06-22T02:13:09;101553.41;;;19.87;66.61
51603;BME280;37954;51.980;5.850;2023-06-22T02:17:21;101571.16;;;19.90;66.52
51603;BME280;37954;51.980;5.850;2023-06-22T02:21:35;101568.97;;;19.87;66.80
51603;BME280;37954;51.980;5.850;2023-06-22T02:25:46;101562.13;;;19.84;66.68
51603;BME280;37954;51.980;5.850;2023-06-22T02:29:58;101562.13;;;19.84;67.11
51603;BME280;37954;51.980;5.850;2023-06-22T02:34:10;101554.16;;;19.77;67.08
51603;BME280;37954;51.980;5.850;2023-06-22T02:38:22;101547.06;;;19.71;67.88
51603;BME280;37954;51.980;5.850;2023-06-22T02:42:37;101547.06;;;19.71;67.45
51603;BME280;37954;51.980;5.850;2023-06-22T02:46:49;101539.94;;;19.65;67.58
51603;BME280;37954;51.980;5.850;2023-06-22T02:51:01;101560.13;;;19.69;67.99
51603;BME280;37954;51.980;5.850;2023-06-22T02:55:13;101547.00;;;19.61;68.34
51603;BME280;37954;51.980;5.850;2023-06-22T02:59:28;101545.34;;;19.60;68.17
51603;BME280;37954;51.980;5.850;2023-06-22T03:03:49;101554.34;;;19.61;68.47
51603;BME280;37954;51.980;5.850;2023-06-22T03:08:02;101547.50;;;19.58;68.74
51603;BME280;37954;51.980;5.850;2023-06-22T03:12:17;101539.34;;;19.58;68.58
51603;BME280;37954;51.980;5.850;2023-06-22T03:16:35;101520.25;;;19.53;68.75
51603;BME280;37954;51.980;5.850;2023-06-22T03:20:46;101507.34;;;19.43;69.70
51603;BME280;37954;51.980;5.850;2023-06-22T03:24:58;101519.44;;;19.53;70.09
51603;BME280;37954;51.980;5.850;2023-06-22T03:29:11;101506.56;;;19.48;70.30
51603;BME280;37954;51.980;5.850;2023-06-22T03:33:23;101495.66;;;19.48;70.70
51603;BME280;37954;51.980;5.850;2023-06-22T03:37:34;101517.53;;;19.53;71.60
51603;BME280;37954;51.980;5.850;2023-06-22T03:41:46;101530.63;;;19.56;72.51
51603;BME280;37954;51.980;5.850;2023-06-22T03:45:58;101501.63;;;19.45;72.52
51603;BME280;37954;51.980;5.850;2023-06-22T03:50:10;101500.50;;;19.41;72.59
51603;BME280;37954;51.980;5.850;2023-06-22T03:54:22;101487.66;;;19.31;72.78
51603;BME280;37954;51.980;5.850;2023-06-22T03:58:34;101483.75;;;19.22;73.21
51603;BME280;37954;51.980;5.850;2023-06-22T04:02:48;101522.09;;;19.47;73.29
51603;BME280;37954;51.980;5.850;2023-06-22T04:07:00;101493.63;;;19.28;73.34
51603;BME280;37954;51.980;5.850;2023-06-22T04:11:12;101485.44;;;19.28;73.64
51603;BME280;37954;51.980;5.850;2023-06-22T04:15:23;101504.88;;;19.42;73.98
51603;BME280;37954;51.980;5.850;2023-06-22T04:19:35;101476.22;;;19.34;74.19
51603;BME280;37954;51.980;5.850;2023-06-22T04:23:47;101502.47;;;20.03;74.13
51603;BME280;37954;51.980;5.850;2023-06-22T04:27:59;101507.00;;;21.00;72.18
51603;BME280;37954;51.980;5.850;2023-06-22T04:32:10;101502.03;;;21.48;69.94
51603;BME280;37954;51.980;5.850;2023-06-22T04:36:24;101504.91;;;21.97;67.88
51603;BME280;37954;51.980;5.850;2023-06-22T04:40:36;101509.19;;;22.63;66.20
51603;BME280;37954;51.980;5.850;2023-06-22T04:44:48;101510.16;;;23.40;64.20
51603;BME280;37954;51.980;5.850;2023-06-22T04:49:00;101502.91;;;23.78;62.35
51603;BME280;37954;51.980;5.850;2023-06-22T04:53:12;101509.94;;;23.65;61.75
51603;BME280;37954;51.980;5.850;2023-06-22T04:57:24;101502.31;;;23.57;62.01
51603;BME280;37954;51.980;5.850;2023-06-22T05:01:43;101514.75;;;23.73;61.37
51603;BME280;37954;51.980;5.850;2023-06-22T05:05:55;101508.91;;;24.04;60.76
51603;BME280;37954;51.980;5.850;2023-06-22T05:10:07;101504.66;;;24.54;59.98
51603;BME280;37954;51.980;5.850;2023-06-22T05:14:19;101512.13;;;25.18;58.73
51603;BME280;37954;51.980;5.850;2023-06-22T05:18:31;101513.69;;;25.52;56.79
51603;BME280;37954;51.980;5.850;2023-06-22T05:22:44;101506.16;;;25.44;56.07
51603;BME280;37954;51.980;5.850;2023-06-22T05:26:55;101498.81;;;25.53;55.28
51603;BME280;37954;51.980;5.850;2023-06-22T05:31:07;101505.69;;;25.69;54.96
51603;BME280;37954;51.980;5.850;2023-06-22T05:35:19;101514.09;;;26.00;54.51
51603;BME280;37954;51.980;5.850;2023-06-22T05:39:31;101512.75;;;26.39;53.73
51603;BME280;37954;51.980;5.850;2023-06-22T05:43:43;101525.09;;;26.86;52.07
51603;BME280;37954;51.980;5.850;2023-06-22T05:47:54;101496.28;;;26.92;51.16
51603;BME280;37954;51.980;5.850;2023-06-22T05:52:06;101525.56;;;26.79;50.90
51603;BME280;37954;51.980;5.850;2023-06-22T05:56:18;101525.50;;;26.93;50.93
51603;BME280;37954;51.980;5.850;2023-06-22T06:00:30;101526.66;;;27.54;50.31
51603;BME280;37954;51.980;5.850;2023-06-22T06:04:42;101524.16;;;28.40;49.04
51603;BME280;37954;51.980;5.850;2023-06-22T06:08:54;101526.50;;;29.28;47.70
51603;BME280;37954;51.980;5.850;2023-06-22T06:13:07;101524.34;;;29.89;45.38
51603;BME280;37954;51.980;5.850;2023-06-22T06:17:18;101536.31;;;30.31;44.25
51603;BME280;37954;51.980;5.850;2023-06-22T06:21:30;101546.00;;;30.66;43.04
51603;BME280;37954;51.980;5.850;2023-06-22T06:25:42;101528.03;;;30.85;41.93
51603;BME280;37954;51.980;5.850;2023-06-22T06:29:54;101487.88;;;30.49;41.66
51603;BME280;37954;51.980;5.850;2023-06-22T06:34:05;101506.91;;;30.80;41.41
51603;BME280;37954;51.980;5.850;2023-06-22T06:38:17;101515.84;;;30.98;40.92
51603;BME280;37954;51.980;5.850;2023-06-22T06:42:29;101509.50;;;31.09;41.13
51603;BME280;37954;51.980;5.850;2023-06-22T06:46:41;101498.75;;;31.77;40.19
51603;BME280;37954;51.980;5.850;2023-06-22T06:50:58;101493.88;;;31.99;39.53
51603;BME280;37954;51.980;5.850;2023-06-22T06:55:10;101496.03;;;32.05;38.96
51603;BME280;37954;51.980;5.850;2023-06-22T06:59:23;101475.47;;;31.82;39.04
51603;BME280;37954;51.980;5.850;2023-06-22T07:03:48;101498.97;;;31.85;39.48
51603;BME280;37954;51.980;5.850;2023-06-22T07:08:01;101484.47;;;31.91;39.11
51603;BME280;37954;51.980;5.850;2023-06-22T07:12:13;101476.19;;;31.67;38.22
51603;BME280;37954;51.980;5.850;2023-06-22T07:16:25;101500.44;;;31.00;39.24
51603;BME280;37954;51.980;5.850;2023-06-22T07:20:39;101476.88;;;30.61;39.81
51603;BME280;37954;51.980;5.850;2023-06-22T07:24:51;101471.94;;;30.46;40.30
51603;BME280;37954;51.980;5.850;2023-06-22T07:29:03;101462.91;;;30.49;40.74
51603;BME280;37954;51.980;5.850;2023-06-22T07:33:18;101479.19;;;30.59;39.98
51603;BME280;37954;51.980;5.850;2023-06-22T07:37:31;101469.06;;;30.75;40.25
51603;BME280;37954;51.980;5.850;2023-06-22T07:41:44;101470.09;;;30.50;40.48
51603;BME280;37954;51.980;5.850;2023-06-22T07:45:56;101462.28;;;30.10;40.99
51603;BME280;37954;51.980;5.850;2023-06-22T07:50:09;101465.72;;;30.07;41.46
51603;BME280;37954;51.980;5.850;2023-06-22T07:54:21;101465.09;;;30.43;41.46
51603;BME280;37954;51.980;5.850;2023-06-22T07:58:33;101460.53;;;30.06;41.51
51603;BME280;37954;51.980;5.850;2023-06-22T08:02:45;101462.03;;;29.65;41.80
51603;BME280;37954;51.980;5.850;2023-06-22T08:06:58;101445.75;;;29.43;42.62
51603;BME280;37954;51.980;5.850;2023-06-22T08:11:10;101438.09;;;29.31;43.07
51603;BME280;37954;51.980;5.850;2023-06-22T08:15:21;101439.13;;;29.18;43.23
51603;BME280;37954;51.980;5.850;2023-06-22T08:19:33;101420.81;;;28.96;43.58
51603;BME280;37954;51.980;5.850;2023-06-22T08:23:45;101423.25;;;28.98;44.06
51603;BME280;37954;51.980;5.850;2023-06-22T08:27:57;101412.56;;;28.88;43.35
51603;BME280;37954;51.980;5.850;2023-06-22T08:32:09;101404.28;;;28.70;43.47
51603;BME280;37954;51.980;5.850;2023-06-22T08:36:21;101390.84;;;29.07;43.21
51603;BME280;37954;51.980;5.850;2023-06-22T08:40:33;101397.72;;;30.10;42.03
51603;BME280;37954;51.980;5.850;2023-06-22T08:44:45;101400.19;;;31.02;40.19
51603;BME280;37954;51.980;5.850;2023-06-22T08:48:58;101408.78;;;31.58;38.22
51603;BME280;37954;51.980;5.850;2023-06-22T08:53:10;101390.38;;;31.41;38.17
51603;BME280;37954;51.980;5.850;2023-06-22T08:57:22;101386.97;;;30.62;38.00
51603;BME280;37954;51.980;5.850;2023-06-22T09:01:34;101405.28;;;30.22;39.13
51603;BME280;37954;51.980;5.850;2023-06-22T09:10:38;101403.53;;;29.67;40.14
51603;BME280;37954;51.980;5.850;2023-06-22T11:29:57;101347.63;;;27.87;45.66
51603;BME280;37954;51.980;5.850;2023-06-22T11:34:09;101344.69;;;27.66;45.90
51603;BME280;37954;51.980;5.850;2023-06-22T11:38:20;101357.44;;;27.45;47.21
51603;BME280;37954;51.980;5.850;2023-06-22T11:42:32;101351.66;;;27.07;47.72
51603;BME280;37954;51.980;5.850;2023-06-22T11:46:44;101355.25;;;26.85;48.07
51603;BME280;37954;51.980;5.850;2023-06-22T11:50:55;101358.13;;;26.71;49.20
51603;BME280;37954;51.980;5.850;2023-06-22T11:55:10;101361.34;;;26.64;49.29
51603;BME280;37954;51.980;5.850;2023-06-22T11:59:22;101364.50;;;26.49;50.47
51603;BME280;37954;51.980;5.850;2023-06-22T12:03:33;101357.72;;;26.33;51.66
51603;BME280;37954;51.980;5.850;2023-06-22T12:07:45;101353.91;;;26.20;53.37
51603;BME280;37954;51.980;5.850;2023-06-22T12:11:57;101347.66;;;26.06;54.73
51603;BME280;37954;51.980;5.850;2023-06-22T12:16:09;101341.50;;;25.87;56.06
51603;BME280;37954;51.980;5.850;2023-06-22T12:20:20;101336.16;;;25.68;56.73
51603;BME280;37954;51.980;5.850;2023-06-22T12:24:34;101336.06;;;25.46;57.85
51603;BME280;37954;51.980;5.850;2023-06-22T12:28:47;101328.66;;;25.19;60.10
51603;BME280;37954;51.980;5.850;2023-06-22T12:32:59;101338.25;;;25.08;60.19
51603;BME280;37954;51.980;5.850;2023-06-22T12:37:10;101331.81;;;24.85;61.18
51603;BME280;37954;51.980;5.850;2023-06-22T12:41:22;101330.47;;;24.69;62.65
51603;BME280;37954;51.980;5.850;2023-06-22T12:45:34;101329.72;;;24.63;63.68
51603;BME280;37954;51.980;5.850;2023-06-22T12:49:46;101319.47;;;24.55;64.29
51603;BME280;37954;51.980;5.850;2023-06-22T12:53:57;101299.47;;;24.36;65.62
51603;BME280;37954;51.980;5.850;2023-06-22T12:58:09;101273.59;;;24.23;66.58
51603;BME280;37954;51.980;5.850;2023-06-22T13:02:21;101259.50;;;24.11;67.78
51603;BME280;37954;51.980;5.850;2023-06-22T13:06:33;101262.03;;;24.07;68.32
51603;BME280;37954;51.980;5.850;2023-06-22T13:10:45;101285.63;;;24.08;68.32
51603;BME280;37954;51.980;5.850;2023-06-22T13:14:57;101277.50;;;24.03;68.16
51603;BME280;37954;51.980;5.850;2023-06-22T13:19:08;101272.47;;;23.91;68.40
51603;BME280;37954;51.980;5.850;2023-06-22T13:23:21;101276.19;;;23.82;68.96
51603;BME280;37954;51.980;5.850;2023-06-22T13:27:33;101270.13;;;23.85;69.69
51603;BME280;37954;51.980;5.850;2023-06-22T13:31:45;101265.97;;;23.87;69.77
51603;BME280;37954;51.980;5.850;2023-06-22T13:35:56;101258.63;;;23.83;70.48
51603;BME280;37954;51.980;5.850;2023-06-22T13:40:37;101264.63;;;23.85;70.68
51603;BME280;37954;51.980;5.850;2023-06-22T13:44:51;101234.63;;;23.56;70.84
51603;BME280;37954;51.980;5.850;2023-06-22T13:49:03;101220.63;;;23.20;71.50
51603;BME280;37954;51.980;5.850;2023-06-22T13:53:15;101233.91;;;23.08;71.88
51603;BME280;37954;51.980;5.850;2023-06-22T13:57:27;101217.00;;;22.82;72.31
51603;BME280;37954;51.980;5.850;2023-06-22T14:01:38;101224.28;;;22.68;73.16
51603;BME280;37954;51.980;5.850;2023-06-22T14:05:51;101205.63;;;22.46;73.77
51603;BME280;37954;51.980;5.850;2023-06-22T14:10:06;101222.06;;;22.46;74.97
51603;BME280;37954;51.980;5.850;2023-06-22T14:14:18;101210.06;;;22.42;75.27
51603;BME280;37954;51.980;5.850;2023-06-22T14:18:32;101202.78;;;22.32;76.05
51603;BME280;37954;51.980;5.850;2023-06-22T14:22:43;101209.66;;;22.30;76.32
51603;BME280;37954;51.980;5.850;2023-06-22T14:26:57;101206.44;;;22.22;76.79
51603;BME280;37954;51.980;5.850;2023-06-22T14:31:09;101210.38;;;22.11;76.81
51603;BME280;37954;51.980;5.850;2023-06-22T14:35:26;101239.31;;;22.17;76.59
51603;BME280;37954;51.980;5.850;2023-06-22T14:39:38;101207.44;;;22.03;76.79
51603;BME280;37954;51.980;5.850;2023-06-22T14:43:50;101222.69;;;22.14;77.00
51603;BME280;37954;51.980;5.850;2023-06-22T14:48:02;101228.16;;;22.14;77.16
51603;BME280;37954;51.980;5.850;2023-06-22T14:52:14;101226.28;;;22.09;77.30
51603;BME280;37954;51.980;5.850;2023-06-22T14:56:26;101223.88;;;22.03;77.58
51603;BME280;37954;51.980;5.850;2023-06-22T15:00:37;101217.41;;;21.88;77.82
51603;BME280;37954;51.980;5.850;2023-06-22T15:04:49;101211.75;;;21.80;77.02
51603;BME280;37954;51.980;5.850;2023-06-22T15:09:01;101200.41;;;21.63;77.82
51603;BME280;37954;51.980;5.850;2023-06-22T15:13:13;101191.19;;;21.48;77.58
51603;BME280;37954;51.980;5.850;2023-06-22T15:17:25;101197.59;;;21.34;78.51
51603;BME280;37954;51.980;5.850;2023-06-22T15:21:40;101187.81;;;21.17;79.44
51603;BME280;37954;51.980;5.850;2023-06-22T15:25:52;101182.47;;;21.02;80.11
51603;BME280;37954;51.980;5.850;2023-06-22T15:30:04;101161.50;;;20.93;81.05
51603;BME280;37954;51.980;5.850;2023-06-22T15:34:16;101150.88;;;20.86;81.92
51603;BME280;37954;51.980;5.850;2023-06-22T15:38:28;101151.34;;;20.98;82.33
51603;BME280;37954;51.980;5.850;2023-06-22T15:42:40;101145.06;;;20.98;83.31
51603;BME280;37954;51.980;5.850;2023-06-22T15:46:52;101146.34;;;21.10;83.39
51603;BME280;37954;51.980;5.850;2023-06-22T15:56:27;101157.50;;;21.14;83.35
51603;BME280;37954;51.980;5.850;2023-06-22T16:00:38;101150.66;;;21.16;83.45
51603;BME280;37954;51.980;5.850;2023-06-22T16:04:50;101149.56;;;21.17;83.36
51603;BME280;37954;51.980;5.850;2023-06-22T16:09:02;101144.66;;;21.14;83.70
51603;BME280;37954;51.980;5.850;2023-06-22T16:13:16;101146.59;;;21.14;83.99
51603;BME280;37954;51.980;5.850;2023-06-22T16:17:28;101137.28;;;21.15;84.41
51603;BME280;37954;51.980;5.850;2023-06-22T16:21:41;101131.25;;;21.23;84.13
51603;BME280;37954;51.980;5.850;2023-06-22T16:25:53;101134.19;;;21.32;84.46
51603;BME280;37954;51.980;5.850;2023-06-22T16:30:06;101138.53;;;21.38;84.70
51603;BME280;37954;51.980;5.850;2023-06-22T16:34:18;101144.25;;;21.41;85.03
51603;BME280;37954;51.980;5.850;2023-06-22T16:38:30;101132.25;;;21.37;85.85
51603;BME280;37954;51.980;5.850;2023-06-22T16:42:45;101122.41;;;21.36;85.69
51603;BME280;37954;51.980;5.850;2023-06-22T16:46:59;101134.16;;;21.37;86.39
51603;BME280;37954;51.980;5.850;2023-06-22T16:51:12;101136.28;;;21.45;86.14
51603;BME280;37954;51.980;5.850;2023-06-22T16:55:24;101150.50;;;21.47;86.55
51603;BME280;37954;51.980;5.850;2023-06-22T16:59:36;101159.47;;;21.47;86.59
51603;BME280;37954;51.980;5.850;2023-06-22T17:04:09;101168.22;;;21.49;86.65
51603;BME280;37954;51.980;5.850;2023-06-22T17:08:21;101180.25;;;21.48;86.75
51603;BME280;37954;51.980;5.850;2023-06-22T17:12:34;101174.31;;;21.41;86.84
51603;BME280;37954;51.980;5.850;2023-06-22T17:16:46;101169.66;;;21.42;86.72
51603;BME280;37954;51.980;5.850;2023-06-22T17:20:59;101182.16;;;21.48;86.50
51603;BME280;37954;51.980;5.850;2023-06-22T17:25:16;101189.81;;;21.51;86.62
51603;BME280;37954;51.980;5.850;2023-06-22T17:29:31;101183.00;;;21.48;86.50
51603;BME280;37954;51.980;5.850;2023-06-22T17:33:43;101168.81;;;21.46;86.21
51603;BME280;37954;51.980;5.850;2023-06-22T17:37:56;101157.09;;;21.41;86.13
51603;BME280;37954;51.980;5.850;2023-06-22T17:42:08;101148.66;;;21.32;86.75
51603;BME280;37954;51.980;5.850;2023-06-22T17:46:20;101152.81;;;21.30;86.85
51603;BME280;37954;51.980;5.850;2023-06-22T17:50:32;101138.34;;;21.19;87.14
51603;BME280;37954;51.980;5.850;2023-06-22T17:54:50;101141.66;;;21.16;87.23
51603;BME280;37954;51.980;5.850;2023-06-22T17:59:21;101134.34;;;21.06;87.99
51603;BME280;37954;51.980;5.850;2023-06-22T18:03:33;101133.84;;;20.99;88.67
51603;BME280;37954;51.980;5.850;2023-06-22T18:07:45;101147.03;;;20.92;89.49
51603;BME280;37954;51.980;5.850;2023-06-22T18:11:59;101156.59;;;20.90;89.57
51603;BME280;37954;51.980;5.850;2023-06-22T18:16:13;101145.09;;;20.93;89.78
51603;BME280;37954;51.980;5.850;2023-06-22T18:20:26;101144.84;;;20.89;89.88
51603;BME280;37954;51.980;5.850;2023-06-22T18:24:40;101145.66;;;20.90;89.69
51603;BME280;37954;51.980;5.850;2023-06-22T18:28:53;101161.25;;;20.84;89.87
51603;BME280;37954;51.980;5.850;2023-06-22T18:33:05;101168.09;;;20.81;89.99
51603;BME280;37954;51.980;5.850;2023-06-22T18:37:21;101171.63;;;20.87;90.06
51603;BME280;37954;51.980;5.850;2023-06-22T18:41:38;101166.69;;;20.89;90.05
51603;BME280;37954;51.980;5.850;2023-06-22T18:45:51;101161.50;;;20.88;89.77
51603;BME280;37954;51.980;5.850;2023-06-22T18:50:05;101154.44;;;20.81;89.90
51603;BME280;37954;51.980;5.850;2023-06-22T18:54:36;101162.41;;;20.78;90.10
51603;BME280;37954;51.980;5.850;2023-06-22T18:58:58;101180.16;;;20.75;89.64
51603;BME280;37954;51.980;5.850;2023-06-22T19:03:28;101171.16;;;20.65;89.68
51603;BME280;37954;51.980;5.850;2023-06-22T19:12:25;101172.31;;;20.59;89.06
51603;BME280;37954;51.980;5.850;2023-06-22T19:16:37;101171.81;;;20.41;88.59
51603;BME280;37954;51.980;5.850;2023-06-22T19:21:02;101178.34;;;20.35;88.08
51603;BME280;37954;51.980;5.850;2023-06-22T19:25:22;101190.66;;;20.28;88.14
51603;BME280;37954;51.980;5.850;2023-06-22T19:29:34;101190.91;;;20.26;87.89
51603;BME280;37954;51.980;5.850;2023-06-22T19:33:46;101193.13;;;20.19;87.74
51603;BME280;37954;51.980;5.850;2023-06-22T19:38:02;101180.91;;;20.06;87.22
51603;BME280;37954;51.980;5.850;2023-06-22T19:42:15;101184.16;;;19.93;87.00
51603;BME280;37954;51.980;5.850;2023-06-22T19:46:31;101177.09;;;19.82;86.72
51603;BME280;37954;51.980;5.850;2023-06-22T19:50:44;101187.19;;;19.76;86.51
51603;BME280;37954;51.980;5.850;2023-06-22T19:54:55;101215.28;;;19.72;86.21
51603;BME280;37954;51.980;5.850;2023-06-22T19:59:14;101232.44;;;19.67;86.20
51603;BME280;37954;51.980;5.850;2023-06-22T20:03:36;101238.44;;;19.54;86.16
51603;BME280;37954;51.980;5.850;2023-06-22T20:07:48;101247.66;;;19.38;86.40
51603;BME280;37954;51.980;5.850;2023-06-22T20:12:00;101251.16;;;19.33;86.61
51603;BME280;37954;51.980;5.850;2023-06-22T20:16:12;101252.25;;;19.32;86.88
51603;BME280;37954;51.980;5.850;2023-06-22T20:20:26;101264.75;;;19.23;87.11
51603;BME280;37954;51.980;5.850;2023-06-22T20:24:38;101287.66;;;19.27;87.26
51603;BME280;37954;51.980;5.850;2023-06-22T20:28:50;101289.28;;;19.18;87.77
51603;BME280;37954;51.980;5.850;2023-06-22T20:33:02;101288.16;;;19.14;87.90
51603;BME280;37954;51.980;5.850;2023-06-22T20:37:17;101282.69;;;19.04;88.13
51603;BME280;37954;51.980;5.850;2023-06-22T20:41:39;101288.63;;;18.96;88.13
51603;BME280;37954;51.980;5.850;2023-06-22T20:45:52;101296.47;;;18.82;88.14
51603;BME280;37954;51.980;5.850;2023-06-22T20:50:06;101310.88;;;18.83;88.24
51603;BME280;37954;51.980;5.850;2023-06-22T21:27:47;101301.84;;;18.35;88.57
51603;BME280;37954;51.980;5.850;2023-06-22T22:15:45;101353.75;;;18.28;89.08
51603;BME280;37954;51.980;5.850;2023-06-22T22:20:04;101321.44;;;18.05;88.99
51603;BME280;37954;51.980;5.850;2023-06-22T22:25:07;101346.44;;;18.02;89.40
51603;BME280;37954;51.980;5.850;2023-06-22T22:29:31;101332.69;;;17.87;89.45
51603;BME280;37954;51.980;5.850;2023-06-22T22:39:35;101364.88;;;17.95;89.79
51603;BME280;37954;51.980;5.850;2023-06-22T22:44:25;101391.56;;;18.03;89.74
51603;BME280;37954;51.980;5.850;2023-06-22T22:54:44;101436.47;;;18.05;89.65
51603;BME280;37954;51.980;5.850;2023-06-22T23:00:25;101414.81;;;17.89;89.90
51603;BME280;37954;51.980;5.850;2023-06-22T23:06:25;101454.44;;;18.06;90.00
51603;BME280;37954;51.980;5.850;2023-06-22T23:16:36;101424.84;;;17.88;89.95
51603;BME280;37954;51.980;5.850;2023-06-22T23:21:01;101434.47;;;17.96;89.90
51603;BME280;37954;51.980;5.850;2023-06-22T23:25:32;101417.22;;;17.85;90.12
51603;BME280;37954;51.980;5.850;2023-06-22T23:30:14;101434.97;;;17.93;90.41
51603;BME280;37954;51.980;5.850;2023-06-22T23:34:33;101431.38;;;17.87;90.55
51603;BME280;37954;51.980;5.850;2023-06-22T23:39:17;101455.50;;;18.05;90.43
51603;BME280;37954;51.980;5.850;2023-06-22T23:44:49;101421.28;;;17.83;90.48
51603;BME280;37954;51.980;5.850;2023-06-22T23:55:04;101422.78;;;17.73;90.58
51603;BME280;37954;51.980;5.850;2023-06-22T23:59:33;101428.97;;;17.69;90.49
